createdAt,value
2018-11-25T00:00:23.762Z,72.30
2018-11-25T00:01:29.385Z,82.50
2018-11-25T00:02:34.850Z,89.83
2018-11-25T00:03:40.277Z,72.47
2018-11-25T00:04:45.731Z,82.23
2018-11-25T00:05:51.159Z,69.00
2018-11-25T00:06:56.718Z,72.67
2018-11-25T00:08:19.068Z,69.40
2018-11-25T00:09:47.443Z,78.13
2018-11-25T00:10:55.055Z,77.87
2018-11-25T00:12:00.859Z,78.83
2018-11-25T00:13:06.607Z,69.23
2018-11-25T00:14:12.221Z,72.03
2018-11-25T00:15:17.798Z,70.63
2018-11-25T00:16:23.265Z,68.30
2018-11-25T00:17:29.198Z,76.33
2018-11-25T00:18:34.763Z,70.75
2018-11-25T00:19:40.261Z,70.62
2018-11-25T00:20:45.711Z,68.07
2018-11-25T00:21:51.344Z,79.77
2018-11-25T00:22:56.761Z,65.73
2018-11-25T00:24:19.490Z,72.03
2018-11-25T00:25:25.038Z,73.72
2018-11-25T00:26:30.575Z,76.70
2018-11-25T00:27:37.631Z,76.37
2018-11-25T00:28:45.596Z,71.87
2018-11-25T00:29:51.139Z,80.13
2018-11-25T00:30:56.603Z,69.70
2018-11-25T00:32:02.465Z,61.87
2018-11-25T00:33:08.593Z,75.93
2018-11-25T00:34:23.579Z,70.97
2018-11-25T00:35:29.162Z,75.23
2018-11-25T00:36:34.580Z,63.50
2018-11-25T00:37:43.330Z,76.25
2018-11-25T00:38:45.771Z,70.08
2018-11-25T00:39:51.195Z,68.72
2018-11-25T00:40:56.620Z,75.08
2018-11-25T00:42:02.075Z,78.83
2018-11-25T00:43:07.850Z,71.20
2018-11-25T00:44:13.347Z,69.58
2018-11-25T00:45:20.487Z,70.13
2018-11-25T00:46:25.931Z,59.45
2018-11-25T00:47:31.420Z,57.30
2018-11-25T00:48:36.863Z,69.77
2018-11-25T00:49:42.342Z,69.77
2018-11-25T00:50:47.854Z,59.37
2018-11-25T00:51:53.361Z,55.30
2018-11-25T00:52:58.933Z,61.48
2018-11-25T00:54:04.414Z,63.23
2018-11-25T00:55:14.888Z,58.93
2018-11-25T00:56:20.340Z,48.07
2018-11-25T00:57:25.822Z,60.37
2018-11-25T00:58:31.351Z,60.00
2018-11-25T00:59:36.874Z,51.03
2018-11-25T01:00:52.716Z,51.50
2018-11-25T01:02:13.315Z,45.13
2018-11-25T01:03:19.064Z,41.63
2018-11-25T01:04:24.554Z,54.00
2018-11-25T01:05:30.118Z,47.23
2018-11-25T01:06:35.703Z,52.08
2018-11-25T01:07:41.294Z,52.93
2018-11-25T01:08:46.823Z,50.70
2018-11-25T01:09:52.396Z,46.80
2018-11-25T01:10:57.955Z,48.57
2018-11-25T01:12:03.411Z,49.53
2018-11-25T01:13:08.942Z,51.65
2018-11-25T01:14:14.431Z,51.73
2018-11-25T01:15:19.869Z,53.67
2018-11-25T01:16:25.572Z,55.50
2018-11-25T01:17:31.046Z,51.55
2018-11-25T01:18:36.590Z,64.82
2018-11-25T01:19:42.052Z,59.63
2018-11-25T01:20:47.686Z,57.50
2018-11-25T01:21:53.257Z,57.13
2018-11-25T01:22:58.833Z,51.97
2018-11-25T01:24:04.330Z,59.17
2018-11-25T01:25:11.351Z,46.60
2018-11-25T01:26:16.818Z,48.92
2018-11-25T01:27:22.506Z,61.27
2018-11-25T01:28:28.002Z,61.98
2018-11-25T01:29:33.491Z,55.63
2018-11-25T01:30:39.032Z,61.53
2018-11-25T01:31:44.527Z,61.67
2018-11-25T01:32:50.216Z,63.83
2018-11-25T01:33:55.826Z,60.00
2018-11-25T01:35:01.379Z,59.60
2018-11-25T01:36:06.971Z,56.63
2018-11-25T01:37:12.454Z,66.03
2018-11-25T01:38:17.916Z,64.63
2018-11-25T01:39:23.451Z,68.17
2018-11-25T01:40:28.986Z,64.07
2018-11-25T01:41:34.546Z,65.20
2018-11-25T01:42:40.083Z,64.73
2018-11-25T01:43:45.719Z,68.17
2018-11-25T01:44:51.261Z,80.13
2018-11-25T01:45:56.719Z,68.07
2018-11-25T01:47:02.218Z,82.08
2018-11-25T01:48:07.712Z,92.70
2018-11-25T01:49:13.293Z,71.40
2018-11-25T01:50:19.274Z,69.63
2018-11-25T01:51:24.956Z,76.47
2018-11-25T01:52:30.485Z,65.70
2018-11-25T01:53:35.995Z,80.60
2018-11-25T01:54:41.577Z,71.10
2018-11-25T01:55:47.378Z,61.97
2018-11-25T01:56:52.817Z,75.93
2018-11-25T01:57:58.371Z,79.17
2018-11-25T01:59:03.811Z,64.00
2018-11-25T02:00:21.880Z,67.87
2018-11-25T02:01:27.347Z,67.87
2018-11-25T02:02:32.871Z,70.13
2018-11-25T02:03:38.439Z,66.40
2018-11-25T02:04:43.853Z,61.18
2018-11-25T02:05:49.454Z,69.77
2018-11-25T02:06:54.983Z,61.37
2018-11-25T02:08:00.541Z,59.13
2018-11-25T02:09:08.813Z,63.63
2018-11-25T02:10:17.121Z,67.13
2018-11-25T02:11:22.571Z,59.45
2018-11-25T02:12:28.065Z,66.67
2018-11-25T02:13:33.571Z,54.05
2018-11-25T02:14:39.301Z,59.33
2018-11-25T02:15:44.933Z,68.57
2018-11-25T02:16:53.236Z,63.80
2018-11-25T02:18:03.127Z,58.83
2018-11-25T02:19:09.182Z,68.55
2018-11-25T02:20:24.253Z,61.93
2018-11-25T02:21:29.830Z,66.90
2018-11-25T02:22:35.323Z,66.47
2018-11-25T02:23:40.842Z,56.13
2018-11-25T02:24:46.286Z,61.33
2018-11-25T02:25:52.740Z,61.30
2018-11-25T02:26:58.196Z,54.47
2018-11-25T02:28:03.645Z,59.60
2018-11-25T02:29:09.154Z,66.43
2018-11-25T02:30:16.183Z,67.00
2018-11-25T02:31:21.638Z,55.20
2018-11-25T02:32:27.163Z,68.43
2018-11-25T02:33:32.738Z,62.13
2018-11-25T02:34:38.239Z,54.33
2018-11-25T02:35:43.669Z,59.47
2018-11-25T02:36:49.303Z,62.80
2018-11-25T02:37:54.850Z,65.90
2018-11-25T02:39:00.272Z,56.90
2018-11-25T02:40:07.928Z,62.47
2018-11-25T02:41:13.527Z,57.27
2018-11-25T02:42:19.169Z,64.30
2018-11-25T02:43:24.653Z,59.40
2018-11-25T02:44:30.176Z,59.30
2018-11-25T02:45:35.735Z,51.00
2018-11-25T02:46:41.159Z,53.85
2018-11-25T02:47:46.741Z,68.40
2018-11-25T02:48:52.255Z,59.50
2018-11-25T02:49:57.746Z,66.77
2018-11-25T02:51:03.291Z,62.80
2018-11-25T02:52:08.777Z,51.50
2018-11-25T02:53:14.357Z,64.97
2018-11-25T02:54:19.873Z,61.40
2018-11-25T02:55:26.658Z,57.23
2018-11-25T02:56:32.175Z,65.52
2018-11-25T02:57:37.737Z,58.35
2018-11-25T02:58:43.238Z,63.90
2018-11-25T02:59:48.761Z,64.17
2018-11-25T03:00:54.254Z,65.43
2018-11-25T03:01:59.748Z,60.55
2018-11-25T03:03:05.427Z,61.37
2018-11-25T03:04:10.939Z,68.20
2018-11-25T03:05:16.542Z,62.90
2018-11-25T03:06:22.099Z,65.30
2018-11-25T03:07:27.662Z,65.83
2018-11-25T03:08:33.199Z,60.70
2018-11-25T03:09:38.659Z,61.65
2018-11-25T03:10:44.192Z,57.13
2018-11-25T03:11:49.750Z,53.67
2018-11-25T03:12:55.305Z,56.33
2018-11-25T03:14:00.794Z,55.13
2018-11-25T03:15:08.922Z,54.13
2018-11-25T03:16:14.343Z,50.47
2018-11-25T03:17:19.982Z,57.17
2018-11-25T03:18:25.476Z,41.20
2018-11-25T03:19:30.900Z,58.03
2018-11-25T03:20:36.482Z,47.78
2018-11-25T03:21:41.895Z,61.18
2018-11-25T03:22:47.441Z,52.67
2018-11-25T03:23:52.906Z,54.00
2018-11-25T03:24:58.428Z,43.43
2018-11-25T03:26:03.913Z,51.55
2018-11-25T03:27:09.350Z,60.63
2018-11-25T03:28:14.813Z,47.23
2018-11-25T03:29:20.338Z,57.20
2018-11-25T03:30:25.942Z,52.17
2018-11-25T03:31:31.515Z,60.40
2018-11-25T03:32:36.985Z,68.93
2018-11-25T03:33:42.592Z,58.23
2018-11-25T03:34:48.056Z,56.73
2018-11-25T03:35:53.766Z,66.23
2018-11-25T03:36:59.225Z,75.80
2018-11-25T03:38:04.778Z,68.30
2018-11-25T03:39:10.335Z,71.23
2018-11-25T03:40:18.049Z,70.90
2018-11-25T03:41:26.015Z,61.07
2018-11-25T03:42:31.461Z,52.67
2018-11-25T03:43:37.911Z,65.20
2018-11-25T03:44:43.383Z,66.50
2018-11-25T03:45:48.964Z,72.90
2018-11-25T03:46:54.450Z,72.10
2018-11-25T03:47:59.887Z,78.67
2018-11-25T03:49:05.663Z,71.50
2018-11-25T03:50:12.617Z,73.72
2018-11-25T03:51:18.028Z,77.12
2018-11-25T03:52:23.508Z,64.85
2018-11-25T03:53:29.027Z,68.17
2018-11-25T03:54:34.903Z,67.30
2018-11-25T03:55:40.459Z,86.87
2018-11-25T03:56:45.954Z,78.37
2018-11-25T03:57:51.445Z,83.17
2018-11-25T03:58:56.971Z,83.33
2018-11-25T04:00:02.472Z,84.23
2018-11-25T04:01:08.090Z,84.00
2018-11-25T04:02:13.563Z,88.47
2018-11-25T04:03:19.018Z,73.02
2018-11-25T04:04:24.544Z,95.40
2018-11-25T04:05:30.036Z,87.87
2018-11-25T04:06:35.534Z,82.02
2018-11-25T04:07:41.092Z,89.53
2018-11-25T04:08:46.594Z,78.03
2018-11-25T04:09:52.120Z,93.27
2018-11-25T04:10:57.781Z,80.05
2018-11-25T04:12:03.257Z,91.30
2018-11-25T04:13:09.038Z,92.33
2018-11-25T04:14:14.536Z,93.40
2018-11-25T04:15:20.546Z,91.80
2018-11-25T04:16:26.081Z,95.17
2018-11-25T04:17:31.940Z,110.30
2018-11-25T04:18:37.413Z,95.23
2018-11-25T04:19:42.997Z,97.33
2018-11-25T04:20:48.528Z,93.72
2018-11-25T04:21:53.974Z,111.67
2018-11-25T04:22:59.659Z,86.40
2018-11-25T04:24:05.119Z,91.57
2018-11-25T04:25:11.905Z,99.67
2018-11-25T04:26:17.446Z,104.35
2018-11-25T04:27:22.954Z,95.35
2018-11-25T04:28:28.651Z,79.17
2018-11-25T04:29:34.187Z,103.13
2018-11-25T04:30:39.702Z,94.75
2018-11-25T04:31:45.241Z,108.47
2018-11-25T04:32:51.746Z,98.63
2018-11-25T04:33:57.258Z,117.73
2018-11-25T04:35:02.717Z,97.37
2018-11-25T04:36:08.130Z,109.67
2018-11-25T04:37:13.619Z,111.55
2018-11-25T04:38:19.175Z,111.00
2018-11-25T04:39:24.683Z,104.10
2018-11-25T04:40:30.598Z,111.75
2018-11-25T04:41:36.106Z,107.80
2018-11-25T04:42:41.637Z,114.25
2018-11-25T04:43:47.311Z,111.67
2018-11-25T04:44:52.757Z,92.17
2018-11-25T04:45:58.212Z,106.57
2018-11-25T04:47:03.655Z,102.80
2018-11-25T04:48:09.077Z,101.53
2018-11-25T04:49:14.794Z,119.07
2018-11-25T04:50:22.574Z,96.22
2018-11-25T04:51:28.110Z,111.10
2018-11-25T04:52:33.627Z,106.33
2018-11-25T04:53:39.138Z,99.35
2018-11-25T04:54:44.634Z,88.63
2018-11-25T04:55:50.143Z,96.13
2018-11-25T04:56:55.570Z,118.63
2018-11-25T04:58:01.297Z,104.93
2018-11-25T04:59:06.914Z,129.07
2018-11-25T05:00:13.478Z,124.80
2018-11-25T05:01:18.983Z,99.13
2018-11-25T05:02:24.510Z,108.22
2018-11-25T05:03:30.075Z,112.10
2018-11-25T05:04:35.627Z,108.20
2018-11-25T05:05:41.175Z,123.75
2018-11-25T05:06:46.686Z,107.40
2018-11-25T05:07:52.210Z,127.23
2018-11-25T05:08:57.788Z,118.40
2018-11-25T05:10:03.831Z,131.63
2018-11-25T05:11:09.358Z,100.23
2018-11-25T05:12:14.836Z,102.13
2018-11-25T05:13:20.341Z,92.12
2018-11-25T05:14:25.852Z,105.73
2018-11-25T05:15:31.349Z,102.63
2018-11-25T05:16:36.853Z,99.50
2018-11-25T05:17:42.567Z,100.33
2018-11-25T05:18:48.079Z,113.53
2018-11-25T05:19:53.494Z,112.63
2018-11-25T05:20:59.106Z,100.20
2018-11-25T05:22:04.702Z,105.37
2018-11-25T05:23:10.127Z,117.43
2018-11-25T05:24:15.751Z,96.40
2018-11-25T05:25:21.544Z,99.83
2018-11-25T05:26:27.071Z,105.93
2018-11-25T05:27:32.579Z,120.00
2018-11-25T05:28:38.069Z,117.57
2018-11-25T05:29:43.528Z,117.60
2018-11-25T05:30:49.059Z,116.33
2018-11-25T05:31:54.560Z,104.30
2018-11-25T05:33:00.338Z,97.60
2018-11-25T05:34:06.306Z,111.70
2018-11-25T05:35:24.345Z,127.03
2018-11-25T05:36:29.832Z,99.53
2018-11-25T05:37:35.378Z,113.57
2018-11-25T05:38:41.147Z,109.47
2018-11-25T05:39:46.713Z,102.50
2018-11-25T05:40:52.189Z,104.43
2018-11-25T05:41:57.716Z,114.90
2018-11-25T05:43:03.186Z,104.00
2018-11-25T05:44:08.714Z,130.10
2018-11-25T05:45:17.481Z,112.47
2018-11-25T05:46:23.056Z,107.15
2018-11-25T05:47:28.573Z,115.43
2018-11-25T05:48:34.079Z,117.95
2018-11-25T05:49:39.523Z,109.17
2018-11-25T05:50:45.116Z,108.70
2018-11-25T05:51:50.657Z,111.70
2018-11-25T05:52:56.196Z,98.07
2018-11-25T05:54:01.688Z,93.30
2018-11-25T05:55:09.306Z,101.33
2018-11-25T05:56:14.799Z,96.77
2018-11-25T05:57:20.386Z,110.30
2018-11-25T05:58:25.903Z,115.93
2018-11-25T05:59:31.388Z,106.40
2018-11-25T06:00:36.875Z,108.90
2018-11-25T06:01:42.507Z,104.87
2018-11-25T06:02:47.954Z,100.67
2018-11-25T06:03:53.560Z,118.97
2018-11-25T06:04:59.044Z,107.78
2018-11-25T06:06:04.658Z,101.00
2018-11-25T06:07:10.172Z,106.73
2018-11-25T06:08:15.708Z,96.57
2018-11-25T06:09:21.202Z,113.97
2018-11-25T06:10:26.754Z,102.10
2018-11-25T06:11:32.249Z,106.50
2018-11-25T06:12:37.738Z,103.92
2018-11-25T06:13:43.242Z,105.87
2018-11-25T06:14:48.758Z,88.95
2018-11-25T06:15:54.186Z,106.12
2018-11-25T06:16:59.882Z,101.87
2018-11-25T06:18:05.698Z,105.97
2018-11-25T06:19:11.187Z,95.63
2018-11-25T06:20:18.418Z,104.30
2018-11-25T06:21:23.875Z,94.63
2018-11-25T06:22:29.446Z,104.97
2018-11-25T06:23:34.890Z,107.47
2018-11-25T06:24:40.346Z,116.63
2018-11-25T06:25:45.885Z,105.50
2018-11-25T06:26:51.473Z,109.97
2018-11-25T06:27:56.989Z,115.47
2018-11-25T06:29:02.386Z,113.60
2018-11-25T06:30:11.369Z,131.57
2018-11-25T06:31:16.803Z,124.38
2018-11-25T06:32:22.217Z,109.97
2018-11-25T06:33:27.841Z,123.83
2018-11-25T06:34:33.333Z,116.03
2018-11-25T06:35:38.851Z,107.50
2018-11-25T06:36:44.375Z,99.85
2018-11-25T06:37:49.910Z,113.77
2018-11-25T06:38:55.395Z,119.02
2018-11-25T06:40:00.974Z,102.35
2018-11-25T06:41:06.974Z,110.83
2018-11-25T06:42:12.561Z,112.23
2018-11-25T06:43:18.023Z,116.55
2018-11-25T06:44:23.557Z,128.02
2018-11-25T06:45:30.654Z,98.80
2018-11-25T06:46:36.221Z,100.18
2018-11-25T06:47:41.738Z,104.15
2018-11-25T06:48:54.571Z,91.30
2018-11-25T06:49:52.939Z,114.67
2018-11-25T06:50:58.374Z,112.50
2018-11-25T06:52:03.912Z,121.30
2018-11-25T06:53:09.352Z,109.32
2018-11-25T06:54:14.792Z,116.97
2018-11-25T06:55:20.342Z,113.65
2018-11-25T06:56:27.527Z,104.45
2018-11-25T06:57:31.421Z,103.87
2018-11-25T06:58:36.936Z,116.90
2018-11-25T06:59:42.662Z,120.67
2018-11-25T07:00:48.609Z,126.73
2018-11-25T07:01:54.217Z,111.43
2018-11-25T07:02:59.730Z,120.10
2018-11-25T07:04:05.235Z,134.30
2018-11-25T07:05:11.122Z,109.77
2018-11-25T07:06:16.622Z,107.73
2018-11-25T07:07:22.185Z,108.37
2018-11-25T07:08:27.638Z,108.73
2018-11-25T07:09:33.215Z,114.23
2018-11-25T07:10:38.794Z,104.58
2018-11-25T07:11:44.293Z,109.53
2018-11-25T07:12:52.284Z,110.37
2018-11-25T07:13:57.828Z,109.73
2018-11-25T07:15:03.349Z,111.73
2018-11-25T07:16:09.004Z,104.07
2018-11-25T07:17:14.758Z,105.33
2018-11-25T07:18:20.184Z,114.47
2018-11-25T07:19:25.634Z,83.17
2018-11-25T07:20:31.171Z,91.90
2018-11-25T07:21:36.714Z,112.10
2018-11-25T07:22:42.347Z,96.23
2018-11-25T07:23:47.812Z,117.47
2018-11-25T07:24:53.391Z,98.63
2018-11-25T07:25:58.897Z,93.77
2018-11-25T07:27:04.499Z,98.27
2018-11-25T07:28:18.432Z,94.23
2018-11-25T07:29:15.407Z,106.93
2018-11-25T07:30:28.850Z,105.30
2018-11-25T07:31:34.407Z,115.57
2018-11-25T07:32:39.864Z,109.30
2018-11-25T07:33:45.465Z,106.50
2018-11-25T07:34:50.891Z,105.37
2018-11-25T07:35:56.444Z,106.03
2018-11-25T07:37:01.934Z,102.20
2018-11-25T07:38:07.721Z,114.13
2018-11-25T07:39:13.263Z,107.13
2018-11-25T07:40:21.949Z,114.73
2018-11-25T07:41:27.420Z,112.20
2018-11-25T07:42:32.919Z,119.73
2018-11-25T07:43:38.474Z,121.70
2018-11-25T07:44:43.953Z,111.10
2018-11-25T07:45:49.550Z,102.58
2018-11-25T07:46:55.300Z,111.27
2018-11-25T07:48:00.754Z,107.97
2018-11-25T07:49:06.487Z,93.90
2018-11-25T07:50:13.444Z,105.60
2018-11-25T07:51:18.957Z,91.50
2018-11-25T07:52:24.437Z,106.80
2018-11-25T07:53:29.998Z,96.63
2018-11-25T07:54:35.492Z,104.00
2018-11-25T07:55:41.054Z,88.40
2018-11-25T07:56:46.579Z,117.23
2018-11-25T07:57:54.029Z,91.63
2018-11-25T07:58:59.507Z,89.53
2018-11-25T08:00:06.226Z,107.80
2018-11-25T08:01:11.806Z,86.20
2018-11-25T08:02:17.350Z,104.30
2018-11-25T08:03:22.982Z,96.87
2018-11-25T08:04:28.423Z,94.90
2018-11-25T08:05:33.928Z,87.53
2018-11-25T08:06:39.454Z,97.80
2018-11-25T08:07:44.942Z,88.50
2018-11-25T08:08:50.391Z,90.00
2018-11-25T08:09:55.919Z,100.13
2018-11-25T08:11:01.509Z,88.10
2018-11-25T08:12:07.157Z,110.47
2018-11-25T08:13:12.666Z,91.20
2018-11-25T08:14:18.079Z,95.87
2018-11-25T08:15:23.748Z,111.93
2018-11-25T08:16:29.302Z,92.53
2018-11-25T08:17:34.813Z,110.70
2018-11-25T08:18:40.198Z,96.80
2018-11-25T08:19:45.674Z,86.83
2018-11-25T08:20:51.275Z,93.27
2018-11-25T08:21:56.766Z,96.90
2018-11-25T08:23:02.254Z,88.70
2018-11-25T08:24:07.962Z,96.03
2018-11-25T08:25:15.297Z,116.23
2018-11-25T08:26:20.985Z,118.40
2018-11-25T08:27:26.477Z,119.10
2018-11-25T08:28:31.998Z,102.47
2018-11-25T08:29:37.539Z,102.05
2018-11-25T08:30:43.083Z,99.63
2018-11-25T08:31:48.506Z,122.33
2018-11-25T08:32:54.469Z,107.20
2018-11-25T08:34:00.010Z,151.73
2018-11-25T08:35:06.036Z,103.90
2018-11-25T08:36:11.464Z,115.30
2018-11-25T08:37:16.909Z,113.20
2018-11-25T08:38:22.315Z,108.30
2018-11-25T08:39:28.422Z,123.40
2018-11-25T08:40:33.363Z,122.60
2018-11-25T08:41:39.132Z,115.90
2018-11-25T08:42:44.751Z,124.27
2018-11-25T08:43:50.258Z,117.93
2018-11-25T08:44:55.707Z,115.43
2018-11-25T08:46:01.191Z,133.87
2018-11-25T08:47:07.110Z,116.87
2018-11-25T08:48:12.537Z,107.23
2018-11-25T08:49:18.083Z,108.23
2018-11-25T08:50:23.528Z,127.50
2018-11-25T08:51:29.015Z,131.13
2018-11-25T08:52:34.497Z,137.63
2018-11-25T08:53:40.126Z,136.27
2018-11-25T08:54:45.626Z,123.87
2018-11-25T08:55:51.128Z,122.73
2018-11-25T08:56:56.584Z,111.87
2018-11-25T08:58:02.046Z,121.60
2018-11-25T08:59:07.834Z,127.97
2018-11-25T09:00:16.775Z,125.23
2018-11-25T09:01:22.252Z,145.30
2018-11-25T09:02:27.778Z,114.23
2018-11-25T09:03:33.355Z,132.50
2018-11-25T09:04:39.039Z,137.63
2018-11-25T09:05:44.495Z,145.50
2018-11-25T09:06:50.031Z,122.53
2018-11-25T09:07:55.520Z,128.27
2018-11-25T09:09:01.049Z,123.40
2018-11-25T09:10:13.402Z,111.83
2018-11-25T09:11:18.869Z,120.30
2018-11-25T09:12:24.258Z,113.70
2018-11-25T09:13:29.794Z,109.00
2018-11-25T09:14:35.226Z,112.10
2018-11-25T09:15:40.763Z,144.30
2018-11-25T09:16:46.272Z,129.25
2018-11-25T09:17:51.845Z,119.97
2018-11-25T09:18:57.293Z,128.30
2018-11-25T09:20:02.834Z,133.90
2018-11-25T09:21:08.612Z,124.90
2018-11-25T09:22:14.166Z,132.13
2018-11-25T09:23:19.630Z,117.33
2018-11-25T09:24:25.121Z,121.30
2018-11-25T09:25:32.395Z,129.27
2018-11-25T09:26:37.869Z,123.07
2018-11-25T09:27:43.440Z,149.80
2018-11-25T09:28:48.986Z,135.67
2018-11-25T09:29:54.418Z,121.40
2018-11-25T09:30:59.946Z,145.63
2018-11-25T09:32:06.276Z,127.30
2018-11-25T09:33:11.798Z,133.33
2018-11-25T09:34:17.339Z,127.10
2018-11-25T09:35:23.254Z,137.93
2018-11-25T09:36:28.958Z,128.73
2018-11-25T09:37:34.490Z,138.12
2018-11-25T09:38:39.915Z,126.07
2018-11-25T09:39:45.469Z,127.57
2018-11-25T09:40:55.151Z,125.33
2018-11-25T09:41:57.030Z,151.40
2018-11-25T09:43:02.734Z,142.87
2018-11-25T09:44:08.407Z,136.87
2018-11-25T09:45:17.335Z,129.07
2018-11-25T09:46:22.942Z,140.40
2018-11-25T09:47:28.410Z,164.03
2018-11-25T09:48:33.981Z,133.43
2018-11-25T09:49:39.479Z,156.53
2018-11-25T09:50:45.059Z,131.10
2018-11-25T09:51:50.550Z,128.67
2018-11-25T09:52:56.067Z,154.03
2018-11-25T09:54:01.554Z,144.60
2018-11-25T09:55:10.043Z,168.67
2018-11-25T09:56:15.616Z,158.10
2018-11-25T09:57:21.206Z,146.20
2018-11-25T09:58:26.742Z,164.17
2018-11-25T09:59:32.243Z,133.60
2018-11-25T10:00:37.759Z,141.63
2018-11-25T10:01:43.219Z,151.97
2018-11-25T10:02:48.769Z,157.67
2018-11-25T10:03:54.538Z,156.37
2018-11-25T10:05:00.063Z,141.90
2018-11-25T10:06:05.847Z,136.97
2018-11-25T10:07:11.401Z,149.40
2018-11-25T10:08:16.891Z,156.97
2018-11-25T10:09:22.430Z,129.60
2018-11-25T10:10:28.174Z,139.20
2018-11-25T10:11:33.712Z,130.57
2018-11-25T10:12:39.126Z,134.93
2018-11-25T10:13:45.829Z,126.77
2018-11-25T10:14:51.290Z,142.17
2018-11-25T10:15:56.803Z,158.43
2018-11-25T10:17:02.296Z,135.10
2018-11-25T10:18:08.062Z,132.03
2018-11-25T10:19:13.552Z,141.70
2018-11-25T10:20:21.591Z,140.23
2018-11-25T10:21:27.415Z,125.30
2018-11-25T10:22:32.887Z,130.95
2018-11-25T10:23:38.366Z,134.97
2018-11-25T10:24:43.910Z,117.20
2018-11-25T10:25:49.386Z,118.87
2018-11-25T10:26:54.896Z,136.10
2018-11-25T10:28:00.570Z,143.83
2018-11-25T10:29:06.090Z,119.00
2018-11-25T10:30:21.687Z,115.33
2018-11-25T10:31:27.250Z,122.40
2018-11-25T10:32:32.825Z,117.03
2018-11-25T10:33:38.395Z,127.67
2018-11-25T10:34:44.033Z,122.07
2018-11-25T10:35:49.446Z,110.57
2018-11-25T10:36:55.117Z,136.23
2018-11-25T10:38:00.694Z,119.03
2018-11-25T10:39:09.634Z,134.87
2018-11-25T10:40:18.639Z,141.65
2018-11-25T10:41:24.143Z,112.90
2018-11-25T10:42:29.686Z,111.30
2018-11-25T10:43:35.275Z,110.00
2018-11-25T10:44:40.906Z,101.17
2018-11-25T10:45:46.462Z,114.97
2018-11-25T10:46:51.882Z,110.27
2018-11-25T10:47:58.417Z,105.97
2018-11-25T10:49:04.026Z,113.40
2018-11-25T10:50:12.863Z,112.20
2018-11-25T10:51:18.306Z,108.60
2018-11-25T10:52:23.742Z,106.23
2018-11-25T10:53:29.333Z,110.87
2018-11-25T10:54:34.870Z,107.17
2018-11-25T10:55:40.395Z,101.83
2018-11-25T10:56:45.956Z,118.90
2018-11-25T10:57:53.129Z,113.33
2018-11-25T10:58:58.634Z,104.30
2018-11-25T11:00:06.037Z,108.23
2018-11-25T11:01:16.783Z,108.67
2018-11-25T11:02:57.763Z,119.43
2018-11-25T11:04:03.297Z,111.93
2018-11-25T11:05:09.426Z,107.87
2018-11-25T11:06:20.105Z,105.83
2018-11-25T11:07:30.886Z,109.27
2018-11-25T11:08:36.439Z,109.60
2018-11-25T11:09:41.967Z,120.20
2018-11-25T11:10:47.689Z,138.40
2018-11-25T11:11:53.171Z,104.13
2018-11-25T11:12:59.060Z,113.68
2018-11-25T11:14:04.559Z,105.13
2018-11-25T11:15:12.280Z,110.20
2018-11-25T11:16:17.886Z,121.40
2018-11-25T11:17:23.473Z,106.30
2018-11-25T11:18:28.898Z,109.80
2018-11-25T11:19:34.374Z,116.77
2018-11-25T11:20:39.829Z,105.40
2018-11-25T11:21:45.518Z,125.00
2018-11-25T11:22:50.944Z,130.27
2018-11-25T11:23:56.520Z,124.97
2018-11-25T11:25:02.134Z,129.87
2018-11-25T11:26:13.242Z,120.50
2018-11-25T11:27:18.784Z,127.33
2018-11-25T11:28:24.312Z,116.60
2018-11-25T11:29:29.827Z,145.07
2018-11-25T11:30:35.419Z,134.17
2018-11-25T11:31:40.995Z,144.10
2018-11-25T11:32:48.892Z,136.30
2018-11-25T11:33:54.324Z,144.67
2018-11-25T11:34:59.746Z,133.30
2018-11-25T11:36:05.366Z,136.47
2018-11-25T11:37:10.867Z,127.23
2018-11-25T11:38:16.302Z,132.50
2018-11-25T11:39:21.843Z,163.10
2018-11-25T11:40:27.458Z,149.40
2018-11-25T11:41:32.975Z,141.57
2018-11-25T11:42:38.483Z,155.53
2018-11-25T11:43:44.013Z,144.67
2018-11-25T11:44:49.562Z,159.93
2018-11-25T11:45:55.010Z,163.10
2018-11-25T11:47:00.525Z,143.73
2018-11-25T11:48:06.343Z,164.63
2018-11-25T11:49:11.911Z,165.87
2018-11-25T11:50:20.291Z,154.50
2018-11-25T11:51:27.344Z,150.97
2018-11-25T11:52:31.340Z,157.87
2018-11-25T11:53:36.817Z,154.27
2018-11-25T11:54:42.298Z,156.47
2018-11-25T11:55:47.752Z,154.63
2018-11-25T11:56:53.266Z,156.57
2018-11-25T11:57:58.902Z,166.47
2018-11-25T11:59:04.524Z,167.70
2018-11-25T12:00:18.983Z,170.43
2018-11-25T12:01:24.450Z,184.97
2018-11-25T12:02:31.654Z,164.23
2018-11-25T12:03:35.623Z,161.43
2018-11-25T12:04:41.030Z,140.20
2018-11-25T12:05:46.527Z,155.80
2018-11-25T12:06:52.103Z,143.72
2018-11-25T12:07:57.591Z,147.37
2018-11-25T12:09:03.246Z,150.63
2018-11-25T12:10:16.446Z,149.33
2018-11-25T12:11:21.975Z,148.17
2018-11-25T12:12:27.443Z,150.27
2018-11-25T12:13:32.887Z,135.87
2018-11-25T12:14:38.623Z,149.83
2018-11-25T12:15:44.141Z,128.67
2018-11-25T12:16:49.675Z,141.40
2018-11-25T12:17:55.214Z,142.57
2018-11-25T12:19:00.721Z,155.23
2018-11-25T12:20:07.182Z,149.13
2018-11-25T12:21:12.753Z,144.03
2018-11-25T12:22:18.217Z,144.27
2018-11-25T12:23:23.725Z,138.07
2018-11-25T12:24:29.230Z,148.53
2018-11-25T12:25:34.958Z,128.20
2018-11-25T12:26:40.439Z,143.77
2018-11-25T12:27:46.197Z,146.10
2018-11-25T12:28:51.731Z,135.40
2018-11-25T12:29:57.156Z,132.43
2018-11-25T12:31:02.814Z,149.17
2018-11-25T12:32:08.234Z,145.23
2018-11-25T12:33:14.019Z,172.47
2018-11-25T12:34:19.519Z,155.13
2018-11-25T12:35:25.090Z,150.90
2018-11-25T12:36:30.518Z,153.40
2018-11-25T12:37:36.447Z,134.33
2018-11-25T12:38:41.606Z,148.57
2018-11-25T12:39:47.151Z,151.77
2018-11-25T12:40:52.916Z,159.07
2018-11-25T12:41:58.367Z,150.47
2018-11-25T12:43:03.876Z,134.93
2018-11-25T12:44:09.423Z,147.60
2018-11-25T12:45:17.486Z,145.87
2018-11-25T12:46:22.954Z,125.70
2018-11-25T12:47:28.403Z,146.83
2018-11-25T12:48:34.000Z,147.70
2018-11-25T12:49:39.459Z,156.20
2018-11-25T12:50:45.027Z,144.17
2018-11-25T12:51:50.566Z,139.50
2018-11-25T12:52:56.462Z,138.37
2018-11-25T12:54:01.968Z,146.50
2018-11-25T12:55:12.342Z,150.17
2018-11-25T12:56:17.896Z,155.93
2018-11-25T12:57:23.322Z,135.32
2018-11-25T12:58:28.836Z,177.10
2018-11-25T12:59:34.357Z,160.65
2018-11-25T13:00:42.090Z,165.20
2018-11-25T13:01:47.586Z,163.77
2018-11-25T13:02:53.077Z,154.10
2018-11-25T13:03:58.573Z,156.80
2018-11-25T13:05:04.022Z,159.13
2018-11-25T13:06:09.639Z,157.70
2018-11-25T13:07:15.144Z,182.07
2018-11-25T13:08:20.688Z,152.77
2018-11-25T13:09:26.197Z,181.83
2018-11-25T13:10:31.751Z,164.27
2018-11-25T13:11:37.421Z,174.07
2018-11-25T13:12:42.918Z,154.27
2018-11-25T13:13:48.548Z,171.43
2018-11-25T13:14:54.033Z,154.00
2018-11-25T13:15:59.522Z,143.20
2018-11-25T13:17:05.053Z,160.07
2018-11-25T13:18:11.229Z,182.47
2018-11-25T13:19:16.858Z,188.33
2018-11-25T13:20:22.545Z,174.10
2018-11-25T13:21:28.125Z,165.77
2018-11-25T13:22:33.605Z,200.83
2018-11-25T13:23:43.281Z,165.53
2018-11-25T13:24:44.711Z,160.78
2018-11-25T13:25:50.247Z,157.30
2018-11-25T13:26:55.966Z,165.43
2018-11-25T13:28:01.508Z,156.00
2018-11-25T13:29:07.839Z,167.60
2018-11-25T13:30:20.510Z,180.63
2018-11-25T13:31:25.972Z,151.33
2018-11-25T13:32:31.511Z,189.03
2018-11-25T13:33:37.341Z,170.50
2018-11-25T13:34:42.740Z,150.77
2018-11-25T13:35:48.203Z,155.80
2018-11-25T13:36:53.734Z,162.27
2018-11-25T13:37:59.471Z,161.90
2018-11-25T13:39:06.935Z,162.37
2018-11-25T13:40:14.858Z,160.07
2018-11-25T13:41:20.311Z,163.03
2018-11-25T13:42:25.791Z,130.82
2018-11-25T13:43:31.392Z,141.43
2018-11-25T13:44:44.577Z,147.03
2018-11-25T13:45:50.035Z,168.87
2018-11-25T13:46:55.593Z,139.17
2018-11-25T13:48:01.127Z,149.80
2018-11-25T13:49:06.870Z,141.97
2018-11-25T13:50:13.305Z,142.97
2018-11-25T13:51:18.800Z,159.83
2018-11-25T13:52:24.354Z,146.63
2018-11-25T13:53:29.894Z,156.33